sensor_id;sensor_type;location;lat;lon;timestamp;P1;durP1;ratioP1;P2;durP2;ratioP2
67841;SDS011;54642;59.126;37.876;2023-01-31T00:04:34;5.45;;;4.45;;
67841;SDS011;54642;59.126;37.876;2023-01-31T00:09:25;3.35;;;2.60;;
67841;SDS011;54642;59.126;37.876;2023-01-31T00:14:18;4.97;;;3.30;;
67841;SDS011;54642;59.126;37.876;2023-01-31T00:16:44;4.05;;;3.03;;
67841;SDS011;54642;59.126;37.876;2023-01-31T00:19:11;3.97;;;2.72;;
67841;SDS011;54642;59.126;37.876;2023-01-31T00:21:36;4.07;;;2.85;;
67841;SDS011;54642;59.126;37.876;2023-01-31T00:24:05;7.35;;;5.80;;
67841;SDS011;54642;59.126;37.876;2023-01-31T00:26:32;4.47;;;3.45;;
67841;SDS011;54642;59.126;37.876;2023-01-31T00:29:00;5.25;;;3.58;;
67841;SDS011;54642;59.126;37.876;2023-01-31T00:31:28;5.28;;;3.78;;
67841;SDS011;54642;59.126;37.876;2023-01-31T00:33:55;5.80;;;3.78;;
67841;SDS011;54642;59.126;37.876;2023-01-31T00:36:32;4.53;;;2.85;;
67841;SDS011;54642;59.126;37.876;2023-01-31T00:38:59;5.05;;;3.70;;
67841;SDS011;54642;59.126;37.876;2023-01-31T00:41:26;5.15;;;3.00;;
67841;SDS011;54642;59.126;37.876;2023-01-31T00:43:53;6.57;;;4.43;;
67841;SDS011;54642;59.126;37.876;2023-01-31T00:46:20;6.53;;;5.30;;
67841;SDS011;54642;59.126;37.876;2023-01-31T00:48:47;4.70;;;3.10;;
67841;SDS011;54642;59.126;37.876;2023-01-31T00:51:13;6.15;;;3.58;;
67841;SDS011;54642;59.126;37.876;2023-01-31T00:53:39;4.05;;;2.95;;
67841;SDS011;54642;59.126;37.876;2023-01-31T00:56:07;5.25;;;3.10;;
67841;SDS011;54642;59.126;37.876;2023-01-31T00:58:38;4.40;;;3.08;;
67841;SDS011;54642;59.126;37.876;2023-01-31T01:01:05;6.03;;;2.78;;
67841;SDS011;54642;59.126;37.876;2023-01-31T01:03:36;4.45;;;3.13;;
67841;SDS011;54642;59.126;37.876;2023-01-31T01:06:02;3.35;;;2.28;;
67841;SDS011;54642;59.126;37.876;2023-01-31T01:08:28;4.50;;;2.75;;
67841;SDS011;54642;59.126;37.876;2023-01-31T01:10:55;4.38;;;2.47;;
67841;SDS011;54642;59.126;37.876;2023-01-31T01:13:22;4.47;;;2.75;;
67841;SDS011;54642;59.126;37.876;2023-01-31T01:18:14;4.97;;;3.38;;
67841;SDS011;54642;59.126;37.876;2023-01-31T01:20:40;4.68;;;3.05;;
67841;SDS011;54642;59.126;37.876;2023-01-31T01:25:40;4.47;;;2.83;;
67841;SDS011;54642;59.126;37.876;2023-01-31T01:28:09;4.70;;;2.65;;
67841;SDS011;54642;59.126;37.876;2023-01-31T01:30:36;6.22;;;3.08;;
67841;SDS011;54642;59.126;37.876;2023-01-31T01:33:03;7.00;;;2.88;;
67841;SDS011;54642;59.126;37.876;2023-01-31T01:35:29;5.10;;;3.88;;
67841;SDS011;54642;59.126;37.876;2023-01-31T01:37:55;3.08;;;2.40;;
67841;SDS011;54642;59.126;37.876;2023-01-31T01:40:21;5.43;;;4.93;;
67841;SDS011;54642;59.126;37.876;2023-01-31T01:42:48;3.08;;;2.25;;
67841;SDS011;54642;59.126;37.876;2023-01-31T01:50:29;4.18;;;2.50;;
67841;SDS011;54642;59.126;37.876;2023-01-31T01:53:13;3.92;;;2.38;;
67841;SDS011;54642;59.126;37.876;2023-01-31T01:55:44;4.25;;;3.25;;
67841;SDS011;54642;59.126;37.876;2023-01-31T01:58:16;5.30;;;3.58;;
67841;SDS011;54642;59.126;37.876;2023-01-31T02:00:48;4.45;;;2.92;;
67841;SDS011;54642;59.126;37.876;2023-01-31T02:03:16;3.78;;;2.60;;
67841;SDS011;54642;59.126;37.876;2023-01-31T02:05:45;4.30;;;2.97;;
67841;SDS011;54642;59.126;37.876;2023-01-31T02:08:16;4.55;;;3.17;;
67841;SDS011;54642;59.126;37.876;2023-01-31T02:10:52;4.63;;;2.92;;
67841;SDS011;54642;59.126;37.876;2023-01-31T02:13:22;3.95;;;2.92;;
67841;SDS011;54642;59.126;37.876;2023-01-31T02:15:48;4.28;;;3.08;;
67841;SDS011;54642;59.126;37.876;2023-01-31T02:18:15;4.13;;;2.83;;
67841;SDS011;54642;59.126;37.876;2023-01-31T02:29:23;5.85;;;4.47;;
67841;SDS011;54642;59.126;37.876;2023-01-31T02:34:53;6.78;;;6.15;;
67841;SDS011;54642;59.126;37.876;2023-01-31T02:40:07;5.10;;;2.67;;
67841;SDS011;54642;59.126;37.876;2023-01-31T02:42:52;5.65;;;2.75;;
67841;SDS011;54642;59.126;37.876;2023-01-31T02:45:40;6.13;;;3.85;;
67841;SDS011;54642;59.126;37.876;2023-01-31T02:50:59;5.75;;;3.40;;
67841;SDS011;54642;59.126;37.876;2023-01-31T02:56:11;4.30;;;2.60;;
67841;SDS011;54642;59.126;37.876;2023-01-31T02:58:58;4.80;;;3.45;;
67841;SDS011;54642;59.126;37.876;2023-01-31T03:01:30;4.47;;;3.17;;
67841;SDS011;54642;59.126;37.876;2023-01-31T03:04:10;8.50;;;3.55;;
67841;SDS011;54642;59.126;37.876;2023-01-31T03:09:11;4.00;;;2.38;;
67841;SDS011;54642;59.126;37.876;2023-01-31T03:20:05;5.93;;;3.60;;
67841;SDS011;54642;59.126;37.876;2023-01-31T03:22:45;8.90;;;3.58;;
67841;SDS011;54642;59.126;37.876;2023-01-31T03:25:16;5.90;;;3.42;;
67841;SDS011;54642;59.126;37.876;2023-01-31T03:27:50;4.30;;;3.05;;
67841;SDS011;54642;59.126;37.876;2023-01-31T03:31:03;4.53;;;3.13;;
67841;SDS011;54642;59.126;37.876;2023-01-31T03:33:20;4.93;;;3.30;;
67841;SDS011;54642;59.126;37.876;2023-01-31T03:35:53;4.35;;;3.33;;
67841;SDS011;54642;59.126;37.876;2023-01-31T03:38:35;4.50;;;2.92;;
67841;SDS011;54642;59.126;37.876;2023-01-31T03:41:09;5.15;;;2.65;;
67841;SDS011;54642;59.126;37.876;2023-01-31T03:46:34;7.60;;;4.80;;
67841;SDS011;54642;59.126;37.876;2023-01-31T03:49:23;7.32;;;4.80;;
67841;SDS011;54642;59.126;37.876;2023-01-31T03:51:53;6.32;;;4.10;;
67841;SDS011;54642;59.126;37.876;2023-01-31T03:54:26;4.82;;;2.75;;
67841;SDS011;54642;59.126;37.876;2023-01-31T03:57:00;6.32;;;3.28;;
67841;SDS011;54642;59.126;37.876;2023-01-31T03:59:42;6.07;;;3.83;;
67841;SDS011;54642;59.126;37.876;2023-01-31T04:02:11;4.75;;;3.47;;
67841;SDS011;54642;59.126;37.876;2023-01-31T04:04:41;6.18;;;4.32;;
67841;SDS011;54642;59.126;37.876;2023-01-31T04:07:15;5.70;;;2.63;;
67841;SDS011;54642;59.126;37.876;2023-01-31T04:09:42;5.20;;;2.95;;
67841;SDS011;54642;59.126;37.876;2023-01-31T04:12:10;6.03;;;3.95;;
67841;SDS011;54642;59.126;37.876;2023-01-31T04:14:38;6.50;;;4.07;;
67841;SDS011;54642;59.126;37.876;2023-01-31T04:17:04;7.78;;;6.05;;
67841;SDS011;54642;59.126;37.876;2023-01-31T04:21:55;4.20;;;3.08;;
67841;SDS011;54642;59.126;37.876;2023-01-31T04:26:47;4.35;;;3.45;;
67841;SDS011;54642;59.126;37.876;2023-01-31T04:29:13;6.50;;;3.50;;
67841;SDS011;54642;59.126;37.876;2023-01-31T04:31:39;5.60;;;3.17;;
67841;SDS011;54642;59.126;37.876;2023-01-31T04:34:05;4.70;;;2.88;;
67841;SDS011;54642;59.126;37.876;2023-01-31T04:36:32;6.38;;;3.17;;
67841;SDS011;54642;59.126;37.876;2023-01-31T04:38:58;6.28;;;4.05;;
67841;SDS011;54642;59.126;37.876;2023-01-31T04:41:26;5.18;;;3.60;;
67841;SDS011;54642;59.126;37.876;2023-01-31T04:46:18;4.65;;;2.83;;
67841;SDS011;54642;59.126;37.876;2023-01-31T04:51:10;3.58;;;2.47;;
67841;SDS011;54642;59.126;37.876;2023-01-31T04:56:02;5.60;;;3.53;;
67841;SDS011;54642;59.126;37.876;2023-01-31T04:58:28;5.18;;;3.47;;
67841;SDS011;54642;59.126;37.876;2023-01-31T05:00:54;8.40;;;4.43;;
67841;SDS011;54642;59.126;37.876;2023-01-31T05:05:47;6.15;;;2.60;;
67841;SDS011;54642;59.126;37.876;2023-01-31T05:08:14;8.43;;;3.60;;
67841;SDS011;54642;59.126;37.876;2023-01-31T05:13:07;6.88;;;4.03;;
67841;SDS011;54642;59.126;37.876;2023-01-31T05:15:34;6.93;;;3.55;;
67841;SDS011;54642;59.126;37.876;2023-01-31T05:18:01;4.68;;;3.03;;
67841;SDS011;54642;59.126;37.876;2023-01-31T05:20:31;8.32;;;3.90;;
67841;SDS011;54642;59.126;37.876;2023-01-31T05:23:02;6.43;;;3.88;;
67841;SDS011;54642;59.126;37.876;2023-01-31T05:25:29;5.28;;;3.90;;
67841;SDS011;54642;59.126;37.876;2023-01-31T05:27:55;4.93;;;3.65;;
67841;SDS011;54642;59.126;37.876;2023-01-31T05:30:22;6.15;;;3.92;;
67841;SDS011;54642;59.126;37.876;2023-01-31T05:32:49;5.63;;;2.97;;
67841;SDS011;54642;59.126;37.876;2023-01-31T05:35:15;6.40;;;3.78;;
67841;SDS011;54642;59.126;37.876;2023-01-31T05:37:42;4.65;;;3.30;;
67841;SDS011;54642;59.126;37.876;2023-01-31T05:40:10;5.38;;;3.50;;
67841;SDS011;54642;59.126;37.876;2023-01-31T05:42:38;5.90;;;5.00;;
67841;SDS011;54642;59.126;37.876;2023-01-31T05:45:05;5.82;;;3.55;;
67841;SDS011;54642;59.126;37.876;2023-01-31T05:47:32;6.10;;;3.67;;
67841;SDS011;54642;59.126;37.876;2023-01-31T05:49:58;5.20;;;3.40;;
67841;SDS011;54642;59.126;37.876;2023-01-31T05:52:25;6.80;;;3.58;;
67841;SDS011;54642;59.126;37.876;2023-01-31T05:54:51;7.13;;;3.83;;
67841;SDS011;54642;59.126;37.876;2023-01-31T05:57:17;6.40;;;3.58;;
67841;SDS011;54642;59.126;37.876;2023-01-31T08:06:11;8.63;;;6.63;;
67841;SDS011;54642;59.126;37.876;2023-01-31T08:08:39;7.85;;;5.75;;
67841;SDS011;54642;59.126;37.876;2023-01-31T08:11:06;7.90;;;6.10;;
67841;SDS011;54642;59.126;37.876;2023-01-31T08:13:33;5.15;;;3.65;;
67841;SDS011;54642;59.126;37.876;2023-01-31T08:16:00;11.55;;;5.65;;
67841;SDS011;54642;59.126;37.876;2023-01-31T08:18:26;5.75;;;4.63;;
67841;SDS011;54642;59.126;37.876;2023-01-31T08:23:18;11.68;;;5.60;;
67841;SDS011;54642;59.126;37.876;2023-01-31T08:28:10;8.70;;;5.00;;
67841;SDS011;54642;59.126;37.876;2023-01-31T08:33:06;5.38;;;4.95;;
67841;SDS011;54642;59.126;37.876;2023-01-31T08:35:32;6.68;;;4.75;;
67841;SDS011;54642;59.126;37.876;2023-01-31T08:40:24;11.48;;;5.43;;
67841;SDS011;54642;59.126;37.876;2023-01-31T08:45:23;7.13;;;5.93;;
67841;SDS011;54642;59.126;37.876;2023-01-31T08:47:56;5.82;;;5.10;;
67841;SDS011;54642;59.126;37.876;2023-01-31T08:50:23;7.30;;;4.20;;
67841;SDS011;54642;59.126;37.876;2023-01-31T08:52:55;6.57;;;2.42;;
67841;SDS011;54642;59.126;37.876;2023-01-31T08:55:23;8.20;;;5.70;;
67841;SDS011;54642;59.126;37.876;2023-01-31T08:57:50;6.28;;;4.32;;
67841;SDS011;54642;59.126;37.876;2023-01-31T09:00:17;7.70;;;5.13;;
67841;SDS011;54642;59.126;37.876;2023-01-31T09:02:49;5.90;;;4.43;;
67841;SDS011;54642;59.126;37.876;2023-01-31T09:05:19;6.88;;;3.60;;
67841;SDS011;54642;59.126;37.876;2023-01-31T09:07:46;11.25;;;6.18;;
67841;SDS011;54642;59.126;37.876;2023-01-31T09:12:38;7.13;;;4.95;;
67841;SDS011;54642;59.126;37.876;2023-01-31T09:17:29;6.78;;;5.40;;
67841;SDS011;54642;59.126;37.876;2023-01-31T09:22:21;8.35;;;7.45;;
67841;SDS011;54642;59.126;37.876;2023-01-31T09:27:13;6.60;;;4.57;;
67841;SDS011;54642;59.126;37.876;2023-01-31T09:29:39;6.90;;;4.45;;
67841;SDS011;54642;59.126;37.876;2023-01-31T09:34:32;6.43;;;4.72;;
67841;SDS011;54642;59.126;37.876;2023-01-31T09:36:58;7.65;;;4.40;;
67841;SDS011;54642;59.126;37.876;2023-01-31T09:41:52;6.43;;;5.65;;
67841;SDS011;54642;59.126;37.876;2023-01-31T09:44:26;6.20;;;5.57;;
67841;SDS011;54642;59.126;37.876;2023-01-31T09:49:50;9.68;;;5.35;;
67841;SDS011;54642;59.126;37.876;2023-01-31T09:52:19;5.80;;;4.75;;
67841;SDS011;54642;59.126;37.876;2023-01-31T09:54:47;6.80;;;4.72;;
67841;SDS011;54642;59.126;37.876;2023-01-31T09:59:46;6.35;;;2.97;;
67841;SDS011;54642;59.126;37.876;2023-01-31T10:10:36;7.03;;;4.25;;
67841;SDS011;54642;59.126;37.876;2023-01-31T10:13:10;8.15;;;3.47;;
67841;SDS011;54642;59.126;37.876;2023-01-31T10:18:50;6.47;;;5.15;;
67841;SDS011;54642;59.126;37.876;2023-01-31T10:21:23;7.18;;;5.47;;
67841;SDS011;54642;59.126;37.876;2023-01-31T10:23:55;9.98;;;6.20;;
67841;SDS011;54642;59.126;37.876;2023-01-31T10:26:30;9.40;;;6.53;;
67841;SDS011;54642;59.126;37.876;2023-01-31T10:31:51;4.50;;;4.07;;
67841;SDS011;54642;59.126;37.876;2023-01-31T10:34:37;9.95;;;6.60;;
67841;SDS011;54642;59.126;37.876;2023-01-31T10:39:49;15.43;;;8.15;;
67841;SDS011;54642;59.126;37.876;2023-01-31T10:42:37;24.30;;;10.27;;
67841;SDS011;54642;59.126;37.876;2023-01-31T10:47:33;10.25;;;7.53;;
67841;SDS011;54642;59.126;37.876;2023-01-31T10:50:17;9.10;;;5.40;;
67841;SDS011;54642;59.126;37.876;2023-01-31T10:52:57;7.05;;;5.38;;
67841;SDS011;54642;59.126;37.876;2023-01-31T10:58:15;7.05;;;6.07;;
67841;SDS011;54642;59.126;37.876;2023-01-31T11:00:44;6.63;;;5.88;;
67841;SDS011;54642;59.126;37.876;2023-01-31T11:03:12;8.07;;;7.15;;
67841;SDS011;54642;59.126;37.876;2023-01-31T11:05:46;5.60;;;3.08;;
67841;SDS011;54642;59.126;37.876;2023-01-31T11:08:34;5.22;;;4.13;;
67841;SDS011;54642;59.126;37.876;2023-01-31T11:11:10;6.93;;;4.90;;
67841;SDS011;54642;59.126;37.876;2023-01-31T11:13:38;7.25;;;3.45;;
67841;SDS011;54642;59.126;37.876;2023-01-31T11:16:10;6.32;;;5.38;;
67841;SDS011;54642;59.126;37.876;2023-01-31T11:18:42;7.38;;;4.97;;
67841;SDS011;54642;59.126;37.876;2023-01-31T11:21:17;9.13;;;7.13;;
67841;SDS011;54642;59.126;37.876;2023-01-31T11:23:49;7.90;;;4.65;;
67841;SDS011;54642;59.126;37.876;2023-01-31T11:29:21;6.80;;;5.07;;
67841;SDS011;54642;59.126;37.876;2023-01-31T11:31:54;6.03;;;4.22;;
67841;SDS011;54642;59.126;37.876;2023-01-31T11:34:22;6.63;;;4.57;;
67841;SDS011;54642;59.126;37.876;2023-01-31T11:36:50;7.88;;;4.88;;
67841;SDS011;54642;59.126;37.876;2023-01-31T11:39:31;6.10;;;5.18;;
67841;SDS011;54642;59.126;37.876;2023-01-31T11:42:13;7.50;;;5.75;;
67841;SDS011;54642;59.126;37.876;2023-01-31T11:44:59;5.15;;;4.22;;
67841;SDS011;54642;59.126;37.876;2023-01-31T11:47:45;8.48;;;5.10;;
67841;SDS011;54642;59.126;37.876;2023-01-31T11:50:24;7.70;;;4.40;;
67841;SDS011;54642;59.126;37.876;2023-01-31T11:52:58;7.35;;;6.63;;
67841;SDS011;54642;59.126;37.876;2023-01-31T11:55:26;4.78;;;3.97;;
67841;SDS011;54642;59.126;37.876;2023-01-31T11:57:59;9.35;;;4.95;;
67841;SDS011;54642;59.126;37.876;2023-01-31T12:00:29;7.97;;;4.90;;
67841;SDS011;54642;59.126;37.876;2023-01-31T12:03:04;5.63;;;3.38;;
67841;SDS011;54642;59.126;37.876;2023-01-31T12:05:44;8.27;;;5.88;;
67841;SDS011;54642;59.126;37.876;2023-01-31T12:08:28;7.45;;;4.93;;
67841;SDS011;54642;59.126;37.876;2023-01-31T12:13:52;5.68;;;4.47;;
67841;SDS011;54642;59.126;37.876;2023-01-31T12:16:25;7.35;;;5.22;;
67841;SDS011;54642;59.126;37.876;2023-01-31T12:27:16;10.25;;;5.75;;
67841;SDS011;54642;59.126;37.876;2023-01-31T12:38:51;11.25;;;6.80;;
67841;SDS011;54642;59.126;37.876;2023-01-31T12:47:25;7.40;;;5.57;;
67841;SDS011;54642;59.126;37.876;2023-01-31T12:52:53;10.65;;;6.65;;
67841;SDS011;54642;59.126;37.876;2023-01-31T13:01:38;9.65;;;6.07;;
67841;SDS011;54642;59.126;37.876;2023-01-31T13:04:33;10.75;;;5.53;;
67841;SDS011;54642;59.126;37.876;2023-01-31T13:07:32;8.80;;;6.97;;
67841;SDS011;54642;59.126;37.876;2023-01-31T13:09:57;7.65;;;5.50;;
67841;SDS011;54642;59.126;37.876;2023-01-31T13:12:27;9.32;;;6.18;;
67841;SDS011;54642;59.126;37.876;2023-01-31T13:15:00;8.82;;;7.93;;
67841;SDS011;54642;59.126;37.876;2023-01-31T13:17:31;9.77;;;7.03;;
67841;SDS011;54642;59.126;37.876;2023-01-31T13:22:54;8.82;;;6.43;;
67841;SDS011;54642;59.126;37.876;2023-01-31T13:25:28;10.63;;;6.20;;
67841;SDS011;54642;59.126;37.876;2023-01-31T13:30:40;10.32;;;8.38;;
67841;SDS011;54642;59.126;37.876;2023-01-31T13:35:55;11.38;;;6.82;;
67841;SDS011;54642;59.126;37.876;2023-01-31T13:38:29;9.68;;;6.10;;
67841;SDS011;54642;59.126;37.876;2023-01-31T13:41:01;7.80;;;6.63;;
67841;SDS011;54642;59.126;37.876;2023-01-31T13:43:29;8.77;;;6.47;;
67841;SDS011;54642;59.126;37.876;2023-01-31T13:46:03;9.88;;;6.80;;
67841;SDS011;54642;59.126;37.876;2023-01-31T13:48:33;8.52;;;6.15;;
67841;SDS011;54642;59.126;37.876;2023-01-31T13:53:49;7.18;;;6.05;;
67841;SDS011;54642;59.126;37.876;2023-01-31T13:56:25;7.20;;;5.32;;
67841;SDS011;54642;59.126;37.876;2023-01-31T13:58:55;9.23;;;6.53;;
67841;SDS011;54642;59.126;37.876;2023-01-31T14:01:23;10.95;;;7.43;;
67841;SDS011;54642;59.126;37.876;2023-01-31T14:06:53;8.90;;;6.05;;
67841;SDS011;54642;59.126;37.876;2023-01-31T14:09:30;8.48;;;5.35;;
67841;SDS011;54642;59.126;37.876;2023-01-31T14:11:57;12.07;;;9.93;;
67841;SDS011;54642;59.126;37.876;2023-01-31T14:14:44;8.00;;;4.97;;
67841;SDS011;54642;59.126;37.876;2023-01-31T14:22:23;8.32;;;6.28;;
67841;SDS011;54642;59.126;37.876;2023-01-31T14:27:19;6.55;;;4.43;;
67841;SDS011;54642;59.126;37.876;2023-01-31T14:32:37;5.50;;;4.97;;
67841;SDS011;54642;59.126;37.876;2023-01-31T14:45:50;5.55;;;4.53;;
67841;SDS011;54642;59.126;37.876;2023-01-31T14:48:38;4.63;;;3.95;;
67841;SDS011;54642;59.126;37.876;2023-01-31T14:57:08;3.13;;;2.20;;
67841;SDS011;54642;59.126;37.876;2023-01-31T15:00:03;4.40;;;3.55;;
67841;SDS011;54642;59.126;37.876;2023-01-31T15:05:00;3.10;;;2.90;;
67841;SDS011;54642;59.126;37.876;2023-01-31T15:07:27;3.47;;;3.17;;
67841;SDS011;54642;59.126;37.876;2023-01-31T15:09:53;4.10;;;3.78;;
67841;SDS011;54642;59.126;37.876;2023-01-31T15:18:03;7.78;;;6.85;;
67841;SDS011;54642;59.126;37.876;2023-01-31T15:20:44;16.73;;;12.48;;
67841;SDS011;54642;59.126;37.876;2023-01-31T15:23:15;13.30;;;9.70;;
67841;SDS011;54642;59.126;37.876;2023-01-31T15:25:46;6.20;;;4.95;;
67841;SDS011;54642;59.126;37.876;2023-01-31T15:28:14;4.00;;;3.70;;
67841;SDS011;54642;59.126;37.876;2023-01-31T15:30:42;4.18;;;3.83;;
67841;SDS011;54642;59.126;37.876;2023-01-31T15:36:26;4.32;;;3.92;;
67841;SDS011;54642;59.126;37.876;2023-01-31T15:41:53;6.00;;;4.22;;
67841;SDS011;54642;59.126;37.876;2023-01-31T15:44:23;4.30;;;3.53;;
67841;SDS011;54642;59.126;37.876;2023-01-31T15:46:53;4.53;;;3.88;;
67841;SDS011;54642;59.126;37.876;2023-01-31T15:54:50;4.75;;;4.35;;
67841;SDS011;54642;59.126;37.876;2023-01-31T15:57:24;5.88;;;4.32;;
67841;SDS011;54642;59.126;37.876;2023-01-31T16:00:01;5.72;;;3.90;;
67841;SDS011;54642;59.126;37.876;2023-01-31T16:02:33;6.85;;;5.93;;
67841;SDS011;54642;59.126;37.876;2023-01-31T16:04:59;4.30;;;2.80;;
67841;SDS011;54642;59.126;37.876;2023-01-31T16:09:54;5.95;;;4.68;;
67841;SDS011;54642;59.126;37.876;2023-01-31T16:14:53;4.13;;;3.72;;
67841;SDS011;54642;59.126;37.876;2023-01-31T16:17:25;4.10;;;3.70;;
67841;SDS011;54642;59.126;37.876;2023-01-31T16:19:52;4.10;;;3.25;;
67841;SDS011;54642;59.126;37.876;2023-01-31T16:24:52;4.57;;;4.18;;
67841;SDS011;54642;59.126;37.876;2023-01-31T16:27:19;2.92;;;1.95;;
67841;SDS011;54642;59.126;37.876;2023-01-31T16:29:50;6.97;;;4.50;;
67841;SDS011;54642;59.126;37.876;2023-01-31T16:32:19;4.82;;;2.60;;
67841;SDS011;54642;59.126;37.876;2023-01-31T16:35:36;4.88;;;3.58;;
67841;SDS011;54642;59.126;37.876;2023-01-31T16:40:35;2.85;;;1.80;;
67841;SDS011;54642;59.126;37.876;2023-01-31T16:43:28;4.10;;;3.55;;
67841;SDS011;54642;59.126;37.876;2023-01-31T16:46:00;6.60;;;6.10;;
67841;SDS011;54642;59.126;37.876;2023-01-31T16:48:36;4.25;;;3.95;;
67841;SDS011;54642;59.126;37.876;2023-01-31T16:56:41;2.95;;;1.80;;
67841;SDS011;54642;59.126;37.876;2023-01-31T17:02:03;2.97;;;2.63;;
67841;SDS011;54642;59.126;37.876;2023-01-31T17:04:33;3.45;;;3.22;;
67841;SDS011;54642;59.126;37.876;2023-01-31T17:07:25;3.50;;;3.10;;
67841;SDS011;54642;59.126;37.876;2023-01-31T17:09:56;2.92;;;2.72;;
67841;SDS011;54642;59.126;37.876;2023-01-31T17:12:27;1.58;;;1.33;;
67841;SDS011;54642;59.126;37.876;2023-01-31T17:14:56;3.22;;;2.92;;
67841;SDS011;54642;59.126;37.876;2023-01-31T17:17:26;2.70;;;2.50;;
67841;SDS011;54642;59.126;37.876;2023-01-31T17:19:54;2.92;;;2.67;;
67841;SDS011;54642;59.126;37.876;2023-01-31T17:22:20;3.53;;;2.63;;
67841;SDS011;54642;59.126;37.876;2023-01-31T17:24:47;5.97;;;5.57;;
67841;SDS011;54642;59.126;37.876;2023-01-31T17:27:15;3.00;;;2.70;;
67841;SDS011;54642;59.126;37.876;2023-01-31T17:29:44;3.33;;;3.13;;
67841;SDS011;54642;59.126;37.876;2023-01-31T17:32:14;3.40;;;3.20;;
67841;SDS011;54642;59.126;37.876;2023-01-31T17:34:42;2.45;;;2.25;;
67841;SDS011;54642;59.126;37.876;2023-01-31T17:37:13;3.10;;;2.90;;
67841;SDS011;54642;59.126;37.876;2023-01-31T17:39:40;2.70;;;2.50;;
67841;SDS011;54642;59.126;37.876;2023-01-31T17:44:38;2.65;;;2.45;;
67841;SDS011;54642;59.126;37.876;2023-01-31T17:49:30;2.60;;;2.40;;
67841;SDS011;54642;59.126;37.876;2023-01-31T17:54:23;3.72;;;3.50;;
67841;SDS011;54642;59.126;37.876;2023-01-31T17:59:15;2.60;;;2.40;;
67841;SDS011;54642;59.126;37.876;2023-01-31T18:04:07;3.65;;;3.35;;
67841;SDS011;54642;59.126;37.876;2023-01-31T18:06:33;3.78;;;3.40;;
67841;SDS011;54642;59.126;37.876;2023-01-31T18:11:25;5.05;;;3.60;;
67841;SDS011;54642;59.126;37.876;2023-01-31T18:16:17;3.38;;;2.63;;
67841;SDS011;54642;59.126;37.876;2023-01-31T18:18:45;2.65;;;1.67;;
67841;SDS011;54642;59.126;37.876;2023-01-31T18:21:13;2.53;;;2.33;;
67841;SDS011;54642;59.126;37.876;2023-01-31T18:23:40;4.32;;;3.63;;
67841;SDS011;54642;59.126;37.876;2023-01-31T18:26:07;5.13;;;3.67;;
67841;SDS011;54642;59.126;37.876;2023-01-31T18:28:34;3.90;;;3.50;;
67841;SDS011;54642;59.126;37.876;2023-01-31T18:31:01;4.18;;;3.35;;
67841;SDS011;54642;59.126;37.876;2023-01-31T18:33:28;3.67;;;3.35;;
67841;SDS011;54642;59.126;37.876;2023-01-31T18:38:21;3.53;;;3.20;;
67841;SDS011;54642;59.126;37.876;2023-01-31T18:43:13;5.82;;;3.95;;
67841;SDS011;54642;59.126;37.876;2023-01-31T18:48:04;4.50;;;3.42;;
67841;SDS011;54642;59.126;37.876;2023-01-31T18:50:30;3.53;;;2.67;;
67841;SDS011;54642;59.126;37.876;2023-01-31T18:55:22;8.43;;;4.30;;
67841;SDS011;54642;59.126;37.876;2023-01-31T18:57:48;3.42;;;2.10;;
67841;SDS011;54642;59.126;37.876;2023-01-31T19:00:14;4.05;;;2.97;;
67841;SDS011;54642;59.126;37.876;2023-01-31T19:02:40;3.47;;;3.15;;
67841;SDS011;54642;59.126;37.876;2023-01-31T19:05:06;6.72;;;4.10;;
67841;SDS011;54642;59.126;37.876;2023-01-31T19:07:33;8.30;;;5.05;;
67841;SDS011;54642;59.126;37.876;2023-01-31T19:12:24;3.50;;;3.05;;
67841;SDS011;54642;59.126;37.876;2023-01-31T19:17:20;4.05;;;3.65;;
67841;SDS011;54642;59.126;37.876;2023-01-31T19:19:46;3.13;;;2.83;;
67841;SDS011;54642;59.126;37.876;2023-01-31T19:22:12;3.00;;;1.85;;
67841;SDS011;54642;59.126;37.876;2023-01-31T19:24:38;5.38;;;3.40;;
67841;SDS011;54642;59.126;37.876;2023-01-31T19:27:04;4.95;;;3.90;;
67841;SDS011;54642;59.126;37.876;2023-01-31T19:31:56;2.85;;;2.65;;
67841;SDS011;54642;59.126;37.876;2023-01-31T19:36:47;3.25;;;2.95;;
67841;SDS011;54642;59.126;37.876;2023-01-31T19:41:39;1.35;;;0.88;;
67841;SDS011;54642;59.126;37.876;2023-01-31T19:44:06;5.40;;;3.33;;
67841;SDS011;54642;59.126;37.876;2023-01-31T19:46:33;3.92;;;3.63;;
67841;SDS011;54642;59.126;37.876;2023-01-31T19:49:01;2.60;;;2.40;;
67841;SDS011;54642;59.126;37.876;2023-01-31T19:51:27;3.25;;;3.00;;
67841;SDS011;54642;59.126;37.876;2023-01-31T19:53:55;4.10;;;3.67;;
67841;SDS011;54642;59.126;37.876;2023-01-31T19:58:53;3.17;;;2.97;;
67841;SDS011;54642;59.126;37.876;2023-01-31T20:03:45;2.17;;;1.98;;
67841;SDS011;54642;59.126;37.876;2023-01-31T20:08:40;3.38;;;3.08;;
67841;SDS011;54642;59.126;37.876;2023-01-31T20:11:07;1.83;;;1.40;;
67841;SDS011;54642;59.126;37.876;2023-01-31T20:13:34;3.15;;;2.85;;
67841;SDS011;54642;59.126;37.876;2023-01-31T20:16:01;3.63;;;3.33;;
67841;SDS011;54642;59.126;37.876;2023-01-31T20:18:32;5.35;;;4.90;;
67841;SDS011;54642;59.126;37.876;2023-01-31T20:20:59;3.55;;;3.25;;
67841;SDS011;54642;59.126;37.876;2023-01-31T20:23:26;3.38;;;3.08;;
67841;SDS011;54642;59.126;37.876;2023-01-31T20:25:53;3.78;;;3.45;;
67841;SDS011;54642;59.126;37.876;2023-01-31T20:28:20;3.05;;;1.83;;
67841;SDS011;54642;59.126;37.876;2023-01-31T20:30:47;3.83;;;3.47;;
67841;SDS011;54642;59.126;37.876;2023-01-31T20:33:14;6.82;;;3.45;;
67841;SDS011;54642;59.126;37.876;2023-01-31T20:35:40;3.78;;;3.47;;
67841;SDS011;54642;59.126;37.876;2023-01-31T20:38:07;4.45;;;4.07;;
67841;SDS011;54642;59.126;37.876;2023-01-31T20:40:34;3.13;;;2.83;;
67841;SDS011;54642;59.126;37.876;2023-01-31T20:43:00;6.15;;;4.28;;
67841;SDS011;54642;59.126;37.876;2023-01-31T20:47:55;4.40;;;4.00;;
67841;SDS011;54642;59.126;37.876;2023-01-31T20:50:22;6.22;;;5.65;;
67841;SDS011;54642;59.126;37.876;2023-01-31T20:52:49;3.85;;;3.45;;
67841;SDS011;54642;59.126;37.876;2023-01-31T20:55:18;3.58;;;3.22;;
67841;SDS011;54642;59.126;37.876;2023-01-31T20:57:44;3.95;;;3.58;;
67841;SDS011;54642;59.126;37.876;2023-01-31T21:00:15;5.63;;;3.60;;
67841;SDS011;54642;59.126;37.876;2023-01-31T21:02:41;5.60;;;4.25;;
67841;SDS011;54642;59.126;37.876;2023-01-31T21:05:08;3.22;;;3.00;;
67841;SDS011;54642;59.126;37.876;2023-01-31T21:09:59;5.32;;;4.93;;
67841;SDS011;54642;59.126;37.876;2023-01-31T21:14:51;4.35;;;3.95;;
67841;SDS011;54642;59.126;37.876;2023-01-31T21:19:43;2.70;;;2.45;;
67841;SDS011;54642;59.126;37.876;2023-01-31T21:22:09;3.25;;;3.05;;
67841;SDS011;54642;59.126;37.876;2023-01-31T21:24:35;5.53;;;2.97;;
67841;SDS011;54642;59.126;37.876;2023-01-31T21:27:01;3.42;;;3.13;;
67841;SDS011;54642;59.126;37.876;2023-01-31T21:31:52;2.50;;;2.28;;
67841;SDS011;54642;59.126;37.876;2023-01-31T21:36:44;3.03;;;2.70;;
67841;SDS011;54642;59.126;37.876;2023-01-31T21:41:36;1.63;;;1.42;;
67841;SDS011;54642;59.126;37.876;2023-01-31T21:44:21;2.30;;;1.42;;
67841;SDS011;54642;59.126;37.876;2023-01-31T21:46:46;1.50;;;0.98;;
67841;SDS011;54642;59.126;37.876;2023-01-31T21:49:13;3.05;;;2.85;;
67841;SDS011;54642;59.126;37.876;2023-01-31T21:51:40;3.85;;;3.55;;
67841;SDS011;54642;59.126;37.876;2023-01-31T21:54:05;3.28;;;3.08;;
67841;SDS011;54642;59.126;37.876;2023-01-31T21:56:32;1.33;;;1.02;;
67841;SDS011;54642;59.126;37.876;2023-01-31T21:58:58;3.45;;;2.97;;
67841;SDS011;54642;59.126;37.876;2023-01-31T22:03:52;5.25;;;4.95;;